Terminal Aerodrome Forecast
Issued by NWS

Home | Current Version | Previous Version | Text Only | Print | Product List | Glossary On
Versions: 1 2 3 4 5 6 7 8 9 10 11 12 13 14 15 16 17 18 19 20 21 22 23 24 25 26 27 28 29 30 31 32 33 34 35 36 37
000
FTAK31 PANC 301740
TAFADU
TAF
PADU 301740Z 3018/3118 04005KT P6SM SCT008 OVC015
      TEMPO 3018/3021 OVC006
     FM310000 09005KT P6SM SCT015 OVC020
     FM310900 05007KT P6SM BKN006=

USA.gov is the U.S. government's official web portal to all federal, state and local government web resources and services.